createdAt,value
2023-05-15T00:07:26.856Z,11.00
2023-05-15T00:17:33.488Z,12.70
2023-05-15T00:27:40.033Z,10.70
2023-05-15T00:37:47.138Z,11.40
2023-05-15T00:47:54.958Z,11.60
2023-05-15T00:58:02.713Z,8.50
2023-05-15T01:08:36.527Z,9.60
2023-05-15T01:18:43.125Z,11.40
2023-05-15T01:29:25.111Z,10.60
2023-05-15T01:39:34.500Z,13.30
2023-05-15T01:49:41.007Z,12.60
2023-05-15T01:59:47.595Z,11.40
2023-05-15T02:09:54.372Z,9.90
2023-05-15T02:19:59.879Z,14.95
2023-05-15T02:30:28.080Z,12.30
2023-05-15T02:40:35.863Z,16.00
2023-05-15T02:50:42.776Z,12.30
2023-05-15T03:00:49.415Z,13.90
2023-05-15T03:10:56.165Z,14.40
2023-05-15T03:21:02.634Z,11.30
2023-05-15T03:31:12.289Z,12.20
2023-05-15T03:41:18.804Z,13.20
2023-05-15T03:51:25.675Z,11.40
2023-05-15T04:01:32.416Z,17.20
2023-05-15T04:11:39.004Z,17.90
2023-05-15T04:21:45.473Z,18.00
2023-05-15T04:31:52.137Z,15.50
2023-05-15T04:41:58.633Z,14.30
2023-05-15T04:52:05.586Z,13.90
2023-05-15T05:02:12.123Z,13.30
2023-05-15T05:12:18.688Z,13.40
2023-05-15T05:22:25.349Z,16.10
2023-05-15T05:32:31.833Z,12.50
2023-05-15T05:42:38.314Z,16.90
2023-05-15T05:52:44.864Z,14.60
2023-05-15T06:02:54.342Z,12.70
2023-05-15T06:13:00.866Z,12.20
2023-05-15T06:23:07.315Z,12.80
2023-05-15T06:33:13.837Z,13.40
2023-05-15T06:43:20.349Z,12.90
2023-05-15T06:53:26.999Z,17.70
2023-05-15T07:03:33.525Z,16.00
2023-05-15T07:13:40.316Z,17.70
2023-05-15T07:23:46.928Z,22.70
2023-05-15T07:33:53.446Z,26.00
2023-05-15T07:43:59.896Z,26.60
2023-05-15T07:54:07.082Z,24.90
2023-05-15T08:04:13.682Z,23.20
2023-05-15T08:14:20.233Z,21.60
2023-05-15T08:24:26.803Z,19.70
2023-05-15T08:34:33.315Z,17.40
2023-05-15T08:44:40.771Z,12.90
2023-05-15T08:54:49.243Z,10.10
2023-05-15T09:04:55.767Z,7.10
2023-05-15T09:15:15.153Z,6.90
2023-05-15T09:25:41.853Z,6.70
2023-05-15T09:35:48.327Z,8.90
2023-05-15T09:45:54.943Z,8.50
2023-05-15T09:56:01.532Z,9.90
2023-05-15T10:06:08.884Z,13.60
2023-05-15T10:16:15.852Z,14.00
2023-05-15T10:26:25.646Z,13.60
2023-05-15T10:36:33.306Z,14.20
2023-05-15T10:46:39.967Z,16.90
2023-05-15T10:56:46.515Z,20.20
2023-05-15T11:07:13.592Z,19.70
2023-05-15T11:17:20.224Z,17.30
2023-05-15T11:27:31.986Z,17.60
2023-05-15T11:37:49.764Z,14.20
2023-05-15T11:47:56.605Z,15.70
2023-05-15T11:58:03.539Z,16.10
2023-05-15T12:08:14.431Z,15.70
2023-05-15T12:18:21.124Z,13.20
2023-05-15T12:29:47.269Z,10.50
2023-05-15T12:39:57.615Z,9.40
2023-05-15T12:50:05.383Z,9.10
2023-05-15T13:00:13.038Z,7.90
2023-05-15T13:10:24.384Z,9.30
2023-05-15T13:20:35.025Z,6.70
2023-05-15T13:30:44.961Z,6.70
2023-05-15T13:40:51.518Z,6.60
2023-05-15T13:50:58.018Z,6.10
2023-05-15T14:01:07.290Z,6.60
2023-05-15T14:11:13.941Z,6.80
2023-05-15T14:21:20.472Z,6.60
2023-05-15T14:31:27.348Z,6.00
2023-05-15T14:41:33.907Z,6.50
2023-05-15T14:51:40.407Z,6.80
2023-05-15T15:01:47.985Z,6.20
2023-05-15T15:11:54.529Z,9.40
2023-05-15T15:22:01.135Z,8.80
2023-05-15T15:32:08.051Z,4.80
2023-05-15T15:42:14.841Z,13.30
2023-05-15T15:52:21.700Z,10.60
2023-05-15T16:02:29.602Z,2.70
2023-05-15T16:12:36.132Z,3.40
2023-05-15T16:22:43.126Z,6.10
2023-05-15T16:32:49.802Z,4.35
2023-05-15T16:42:56.640Z,7.40
2023-05-15T16:53:03.388Z,5.80
2023-05-15T17:03:10.073Z,5.70
2023-05-15T17:13:17.263Z,3.70
2023-05-15T17:23:23.789Z,4.10
2023-05-15T17:33:30.372Z,4.60
2023-05-15T17:43:36.884Z,11.50
2023-05-15T17:53:43.428Z,6.20
2023-05-15T18:03:50.078Z,7.70
2023-05-15T18:13:56.700Z,7.80
2023-05-15T18:24:03.199Z,11.90
2023-05-15T18:34:09.730Z,7.50
2023-05-15T18:44:16.345Z,9.90
2023-05-15T18:54:22.985Z,8.60
2023-05-15T19:04:29.617Z,9.20
2023-05-15T19:14:36.141Z,8.10
2023-05-15T19:24:42.667Z,14.90
2023-05-15T19:34:50.246Z,15.50
2023-05-15T19:44:56.793Z,13.40
2023-05-15T19:55:03.249Z,16.10
2023-05-15T20:05:10.295Z,15.80
2023-05-15T20:15:17.646Z,15.30
2023-05-15T20:25:24.494Z,14.40
2023-05-15T20:35:31.268Z,13.80
2023-05-15T20:45:37.948Z,13.80
2023-05-15T20:55:44.470Z,14.80
2023-05-15T21:05:56.019Z,14.50
2023-05-15T21:16:03.347Z,15.70
2023-05-15T21:26:09.858Z,16.00
2023-05-15T21:36:16.324Z,16.00
2023-05-15T21:46:22.921Z,12.00
2023-05-15T21:56:29.445Z,15.70
2023-05-15T22:06:35.972Z,14.30
2023-05-15T22:16:42.645Z,13.00
2023-05-15T22:26:49.235Z,11.30
2023-05-15T22:36:56.412Z,11.90
2023-05-15T22:47:03.051Z,14.80
2023-05-15T22:57:10.748Z,16.70
2023-05-15T23:07:19.296Z,18.20
2023-05-15T23:17:26.621Z,20.60
2023-05-15T23:27:33.865Z,19.00
2023-05-15T23:37:40.424Z,20.60
2023-05-15T23:47:47.993Z,20.70
2023-05-15T23:57:54.527Z,21.30
